sensor_id;sensor_type;location;lat;lon;timestamp;P1;durP1;ratioP1;P2;durP2;ratioP2
47784;SDS011;35233;55.686;37.848;2024-02-21T00:00:46;6.57;;;4.78;;
47784;SDS011;35233;55.686;37.848;2024-02-21T00:03:12;6.93;;;4.70;;
47784;SDS011;35233;55.686;37.848;2024-02-21T00:05:37;7.85;;;4.95;;
47784;SDS011;35233;55.686;37.848;2024-02-21T00:08:03;5.90;;;5.03;;
47784;SDS011;35233;55.686;37.848;2024-02-21T00:10:29;5.53;;;4.93;;
47784;SDS011;35233;55.686;37.848;2024-02-21T00:12:56;6.25;;;4.80;;
47784;SDS011;35233;55.686;37.848;2024-02-21T00:15:23;7.25;;;4.95;;
47784;SDS011;35233;55.686;37.848;2024-02-21T00:17:49;6.15;;;4.95;;
47784;SDS011;35233;55.686;37.848;2024-02-21T00:20:14;5.72;;;4.50;;
47784;SDS011;35233;55.686;37.848;2024-02-21T00:22:40;5.78;;;4.72;;
47784;SDS011;35233;55.686;37.848;2024-02-21T00:25:06;5.78;;;4.68;;
47784;SDS011;35233;55.686;37.848;2024-02-21T00:27:32;7.15;;;5.05;;
47784;SDS011;35233;55.686;37.848;2024-02-21T00:29:57;5.75;;;4.93;;
47784;SDS011;35233;55.686;37.848;2024-02-21T00:32:23;5.35;;;4.65;;
47784;SDS011;35233;55.686;37.848;2024-02-21T00:34:48;5.60;;;4.60;;
47784;SDS011;35233;55.686;37.848;2024-02-21T00:37:14;7.88;;;4.80;;
47784;SDS011;35233;55.686;37.848;2024-02-21T00:39:40;5.38;;;4.50;;
47784;SDS011;35233;55.686;37.848;2024-02-21T00:42:05;5.85;;;4.57;;
47784;SDS011;35233;55.686;37.848;2024-02-21T00:44:32;5.63;;;4.50;;
47784;SDS011;35233;55.686;37.848;2024-02-21T00:46:58;5.57;;;4.70;;
47784;SDS011;35233;55.686;37.848;2024-02-21T00:49:23;4.90;;;4.22;;
47784;SDS011;35233;55.686;37.848;2024-02-21T00:51:49;5.65;;;4.65;;
47784;SDS011;35233;55.686;37.848;2024-02-21T00:54:15;6.00;;;4.50;;
47784;SDS011;35233;55.686;37.848;2024-02-21T00:56:41;7.45;;;4.78;;
47784;SDS011;35233;55.686;37.848;2024-02-21T00:59:07;5.20;;;4.40;;
47784;SDS011;35233;55.686;37.848;2024-02-21T01:01:33;5.82;;;4.63;;
47784;SDS011;35233;55.686;37.848;2024-02-21T01:03:59;6.30;;;4.63;;
47784;SDS011;35233;55.686;37.848;2024-02-21T01:06:25;6.13;;;4.43;;
47784;SDS011;35233;55.686;37.848;2024-02-21T01:08:51;5.55;;;4.32;;
47784;SDS011;35233;55.686;37.848;2024-02-21T01:11:16;4.65;;;4.18;;
47784;SDS011;35233;55.686;37.848;2024-02-21T01:13:42;5.25;;;4.18;;
47784;SDS011;35233;55.686;37.848;2024-02-21T01:16:08;6.68;;;4.72;;
47784;SDS011;35233;55.686;37.848;2024-02-21T01:18:33;5.15;;;4.00;;
47784;SDS011;35233;55.686;37.848;2024-02-21T01:20:59;5.25;;;4.18;;
47784;SDS011;35233;55.686;37.848;2024-02-21T01:23:25;5.40;;;4.32;;
47784;SDS011;35233;55.686;37.848;2024-02-21T01:25:51;5.57;;;4.30;;
47784;SDS011;35233;55.686;37.848;2024-02-21T01:28:17;5.18;;;3.92;;
47784;SDS011;35233;55.686;37.848;2024-02-21T01:30:43;5.35;;;3.97;;
47784;SDS011;35233;55.686;37.848;2024-02-21T01:33:09;5.07;;;4.05;;
47784;SDS011;35233;55.686;37.848;2024-02-21T01:35:35;5.05;;;3.78;;
47784;SDS011;35233;55.686;37.848;2024-02-21T01:38:02;6.20;;;4.32;;
47784;SDS011;35233;55.686;37.848;2024-02-21T01:40:27;6.22;;;4.18;;
47784;SDS011;35233;55.686;37.848;2024-02-21T01:42:54;5.75;;;4.53;;
47784;SDS011;35233;55.686;37.848;2024-02-21T01:45:20;5.60;;;4.30;;
47784;SDS011;35233;55.686;37.848;2024-02-21T01:47:47;5.00;;;4.00;;
47784;SDS011;35233;55.686;37.848;2024-02-21T01:50:14;5.90;;;4.25;;
47784;SDS011;35233;55.686;37.848;2024-02-21T01:52:43;5.38;;;3.75;;
47784;SDS011;35233;55.686;37.848;2024-02-21T01:55:13;4.88;;;3.80;;
47784;SDS011;35233;55.686;37.848;2024-02-21T01:57:41;4.88;;;3.90;;
47784;SDS011;35233;55.686;37.848;2024-02-21T02:00:11;5.03;;;3.97;;
47784;SDS011;35233;55.686;37.848;2024-02-21T02:02:38;5.50;;;3.97;;
47784;SDS011;35233;55.686;37.848;2024-02-21T02:05:06;5.95;;;4.20;;
47784;SDS011;35233;55.686;37.848;2024-02-21T02:07:33;5.68;;;4.10;;
47784;SDS011;35233;55.686;37.848;2024-02-21T02:10:01;5.15;;;4.00;;
47784;SDS011;35233;55.686;37.848;2024-02-21T02:12:27;5.88;;;4.38;;
47784;SDS011;35233;55.686;37.848;2024-02-21T02:14:59;5.32;;;3.90;;
47784;SDS011;35233;55.686;37.848;2024-02-21T02:17:25;7.10;;;4.63;;
47784;SDS011;35233;55.686;37.848;2024-02-21T02:19:51;5.47;;;4.25;;
47784;SDS011;35233;55.686;37.848;2024-02-21T02:22:17;5.30;;;4.03;;
47784;SDS011;35233;55.686;37.848;2024-02-21T02:24:47;4.53;;;3.72;;
47784;SDS011;35233;55.686;37.848;2024-02-21T02:27:14;5.10;;;3.97;;
47784;SDS011;35233;55.686;37.848;2024-02-21T02:29:39;5.35;;;4.50;;
47784;SDS011;35233;55.686;37.848;2024-02-21T02:32:05;5.00;;;3.72;;
47784;SDS011;35233;55.686;37.848;2024-02-21T02:34:30;4.75;;;3.75;;
47784;SDS011;35233;55.686;37.848;2024-02-21T02:36:56;6.82;;;4.03;;
47784;SDS011;35233;55.686;37.848;2024-02-21T02:39:22;4.88;;;4.00;;
47784;SDS011;35233;55.686;37.848;2024-02-21T02:41:47;5.78;;;4.30;;
47784;SDS011;35233;55.686;37.848;2024-02-21T02:44:13;5.72;;;4.20;;
47784;SDS011;35233;55.686;37.848;2024-02-21T02:46:41;5.82;;;4.22;;
47784;SDS011;35233;55.686;37.848;2024-02-21T02:49:07;5.47;;;4.25;;
47784;SDS011;35233;55.686;37.848;2024-02-21T02:51:32;4.60;;;3.70;;
47784;SDS011;35233;55.686;37.848;2024-02-21T02:53:58;5.50;;;4.28;;
47784;SDS011;35233;55.686;37.848;2024-02-21T02:56:24;5.95;;;4.15;;
47784;SDS011;35233;55.686;37.848;2024-02-21T02:58:49;5.65;;;4.20;;
47784;SDS011;35233;55.686;37.848;2024-02-21T03:01:15;5.45;;;4.20;;
47784;SDS011;35233;55.686;37.848;2024-02-21T03:03:40;5.63;;;4.25;;
47784;SDS011;35233;55.686;37.848;2024-02-21T03:06:06;5.30;;;4.00;;
47784;SDS011;35233;55.686;37.848;2024-02-21T03:08:31;5.50;;;4.13;;
47784;SDS011;35233;55.686;37.848;2024-02-21T03:11:00;5.00;;;3.83;;
47784;SDS011;35233;55.686;37.848;2024-02-21T03:13:26;4.85;;;3.92;;
47784;SDS011;35233;55.686;37.848;2024-02-21T03:15:51;5.50;;;4.38;;
47784;SDS011;35233;55.686;37.848;2024-02-21T03:18:17;5.10;;;3.95;;
47784;SDS011;35233;55.686;37.848;2024-02-21T03:20:42;5.75;;;4.53;;
47784;SDS011;35233;55.686;37.848;2024-02-21T03:23:08;5.20;;;4.20;;
47784;SDS011;35233;55.686;37.848;2024-02-21T03:25:34;5.10;;;4.10;;
47784;SDS011;35233;55.686;37.848;2024-02-21T03:27:59;6.07;;;4.35;;
47784;SDS011;35233;55.686;37.848;2024-02-21T03:30:25;5.22;;;4.15;;
47784;SDS011;35233;55.686;37.848;2024-02-21T03:32:50;5.10;;;3.90;;
47784;SDS011;35233;55.686;37.848;2024-02-21T03:35:16;5.03;;;3.88;;
47784;SDS011;35233;55.686;37.848;2024-02-21T03:37:42;5.20;;;4.28;;
47784;SDS011;35233;55.686;37.848;2024-02-21T03:40:09;7.22;;;3.92;;
47784;SDS011;35233;55.686;37.848;2024-02-21T03:42:35;5.35;;;4.28;;
47784;SDS011;35233;55.686;37.848;2024-02-21T03:45:01;6.15;;;4.35;;
47784;SDS011;35233;55.686;37.848;2024-02-21T03:47:27;5.00;;;3.88;;
47784;SDS011;35233;55.686;37.848;2024-02-21T03:49:52;5.47;;;3.97;;
47784;SDS011;35233;55.686;37.848;2024-02-21T03:52:18;4.82;;;4.05;;
47784;SDS011;35233;55.686;37.848;2024-02-21T03:54:44;6.45;;;4.38;;
47784;SDS011;35233;55.686;37.848;2024-02-21T03:57:09;5.63;;;3.97;;
47784;SDS011;35233;55.686;37.848;2024-02-21T03:59:35;4.78;;;3.92;;
47784;SDS011;35233;55.686;37.848;2024-02-21T04:02:01;5.20;;;3.88;;
47784;SDS011;35233;55.686;37.848;2024-02-21T04:04:29;5.03;;;4.00;;
47784;SDS011;35233;55.686;37.848;2024-02-21T04:06:54;4.30;;;3.60;;
47784;SDS011;35233;55.686;37.848;2024-02-21T04:09:20;4.90;;;3.95;;
47784;SDS011;35233;55.686;37.848;2024-02-21T04:11:46;5.60;;;3.60;;
47784;SDS011;35233;55.686;37.848;2024-02-21T04:14:11;4.95;;;3.80;;
47784;SDS011;35233;55.686;37.848;2024-02-21T04:16:37;5.20;;;4.05;;
47784;SDS011;35233;55.686;37.848;2024-02-21T04:19:03;4.88;;;3.90;;
47784;SDS011;35233;55.686;37.848;2024-02-21T04:21:29;5.10;;;4.03;;
47784;SDS011;35233;55.686;37.848;2024-02-21T04:23:54;5.95;;;3.97;;
47784;SDS011;35233;55.686;37.848;2024-02-21T04:26:20;5.13;;;3.80;;
47784;SDS011;35233;55.686;37.848;2024-02-21T04:28:46;7.72;;;6.25;;
47784;SDS011;35233;55.686;37.848;2024-02-21T04:31:13;9.65;;;7.50;;
47784;SDS011;35233;55.686;37.848;2024-02-21T04:33:39;10.55;;;8.02;;
47784;SDS011;35233;55.686;37.848;2024-02-21T04:36:04;9.07;;;7.32;;
47784;SDS011;35233;55.686;37.848;2024-02-21T04:38:30;9.07;;;7.30;;
47784;SDS011;35233;55.686;37.848;2024-02-21T04:40:56;11.32;;;8.43;;
47784;SDS011;35233;55.686;37.848;2024-02-21T04:43:24;9.70;;;7.82;;
47784;SDS011;35233;55.686;37.848;2024-02-21T04:45:52;12.20;;;9.18;;
47784;SDS011;35233;55.686;37.848;2024-02-21T04:48:18;15.77;;;11.85;;
47784;SDS011;35233;55.686;37.848;2024-02-21T04:50:45;15.23;;;10.93;;
47784;SDS011;35233;55.686;37.848;2024-02-21T04:53:11;13.48;;;10.15;;
47784;SDS011;35233;55.686;37.848;2024-02-21T04:55:36;11.40;;;9.55;;
47784;SDS011;35233;55.686;37.848;2024-02-21T04:58:02;12.23;;;9.80;;
47784;SDS011;35233;55.686;37.848;2024-02-21T05:00:28;12.80;;;9.48;;
47784;SDS011;35233;55.686;37.848;2024-02-21T05:02:53;11.95;;;9.50;;
47784;SDS011;35233;55.686;37.848;2024-02-21T05:05:19;11.73;;;9.50;;
47784;SDS011;35233;55.686;37.848;2024-02-21T05:07:45;11.25;;;8.98;;
47784;SDS011;35233;55.686;37.848;2024-02-21T05:10:10;11.68;;;8.70;;
47784;SDS011;35233;55.686;37.848;2024-02-21T05:12:36;11.38;;;9.05;;
47784;SDS011;35233;55.686;37.848;2024-02-21T05:15:02;14.27;;;8.70;;
47784;SDS011;35233;55.686;37.848;2024-02-21T05:17:28;12.98;;;10.13;;
47784;SDS011;35233;55.686;37.848;2024-02-21T05:19:54;13.35;;;10.23;;
47784;SDS011;35233;55.686;37.848;2024-02-21T05:22:19;14.30;;;9.85;;
47784;SDS011;35233;55.686;37.848;2024-02-21T05:24:45;15.50;;;10.45;;
47784;SDS011;35233;55.686;37.848;2024-02-21T05:27:11;13.70;;;10.70;;
47784;SDS011;35233;55.686;37.848;2024-02-21T05:29:36;13.23;;;10.35;;
47784;SDS011;35233;55.686;37.848;2024-02-21T05:32:02;13.35;;;10.07;;
47784;SDS011;35233;55.686;37.848;2024-02-21T05:34:27;12.32;;;9.90;;
47784;SDS011;35233;55.686;37.848;2024-02-21T05:36:53;11.95;;;9.80;;
47784;SDS011;35233;55.686;37.848;2024-02-21T05:39:19;13.88;;;10.35;;
47784;SDS011;35233;55.686;37.848;2024-02-21T05:41:47;13.15;;;9.60;;
47784;SDS011;35233;55.686;37.848;2024-02-21T05:44:13;13.02;;;9.80;;
47784;SDS011;35233;55.686;37.848;2024-02-21T05:46:38;11.75;;;9.10;;
47784;SDS011;35233;55.686;37.848;2024-02-21T05:49:04;12.80;;;10.05;;
47784;SDS011;35233;55.686;37.848;2024-02-21T05:51:33;13.10;;;9.55;;
47784;SDS011;35233;55.686;37.848;2024-02-21T05:53:59;12.60;;;9.32;;
47784;SDS011;35233;55.686;37.848;2024-02-21T05:56:25;12.77;;;9.38;;
47784;SDS011;35233;55.686;37.848;2024-02-21T05:58:51;12.27;;;9.52;;
47784;SDS011;35233;55.686;37.848;2024-02-21T06:01:17;11.95;;;8.90;;
47784;SDS011;35233;55.686;37.848;2024-02-21T06:03:49;11.52;;;9.43;;
47784;SDS011;35233;55.686;37.848;2024-02-21T06:06:14;11.93;;;8.93;;
47784;SDS011;35233;55.686;37.848;2024-02-21T06:08:40;11.57;;;9.18;;
47784;SDS011;35233;55.686;37.848;2024-02-21T06:11:06;10.60;;;8.65;;
47784;SDS011;35233;55.686;37.848;2024-02-21T06:13:31;12.05;;;8.70;;
47784;SDS011;35233;55.686;37.848;2024-02-21T06:15:57;10.80;;;8.45;;
47784;SDS011;35233;55.686;37.848;2024-02-21T06:18:23;10.05;;;7.97;;
47784;SDS011;35233;55.686;37.848;2024-02-21T06:20:48;9.85;;;7.97;;
47784;SDS011;35233;55.686;37.848;2024-02-21T06:23:15;11.43;;;8.80;;
47784;SDS011;35233;55.686;37.848;2024-02-21T06:25:44;11.57;;;9.18;;
47784;SDS011;35233;55.686;37.848;2024-02-21T06:28:11;10.52;;;8.65;;
47784;SDS011;35233;55.686;37.848;2024-02-21T06:30:36;9.65;;;7.75;;
47784;SDS011;35233;55.686;37.848;2024-02-21T06:33:02;9.50;;;7.75;;
47784;SDS011;35233;55.686;37.848;2024-02-21T06:35:28;10.68;;;7.38;;
47784;SDS011;35233;55.686;37.848;2024-02-21T06:37:54;9.43;;;7.57;;
47784;SDS011;35233;55.686;37.848;2024-02-21T06:40:22;10.23;;;7.88;;
47784;SDS011;35233;55.686;37.848;2024-02-21T06:42:49;10.20;;;7.18;;
47784;SDS011;35233;55.686;37.848;2024-02-21T06:45:15;10.93;;;7.60;;
47784;SDS011;35233;55.686;37.848;2024-02-21T06:47:41;9.65;;;6.82;;
47784;SDS011;35233;55.686;37.848;2024-02-21T06:50:07;10.13;;;7.13;;
47784;SDS011;35233;55.686;37.848;2024-02-21T06:52:34;7.90;;;6.60;;
47784;SDS011;35233;55.686;37.848;2024-02-21T06:55:00;7.53;;;6.50;;
47784;SDS011;35233;55.686;37.848;2024-02-21T06:57:25;10.57;;;6.95;;
47784;SDS011;35233;55.686;37.848;2024-02-21T06:59:51;9.88;;;6.97;;
47784;SDS011;35233;55.686;37.848;2024-02-21T07:02:17;8.57;;;6.50;;
47784;SDS011;35233;55.686;37.848;2024-02-21T07:04:42;9.43;;;7.15;;
47784;SDS011;35233;55.686;37.848;2024-02-21T07:07:08;9.55;;;7.47;;
47784;SDS011;35233;55.686;37.848;2024-02-21T07:09:34;7.75;;;6.45;;
47784;SDS011;35233;55.686;37.848;2024-02-21T07:12:00;8.27;;;6.82;;
47784;SDS011;35233;55.686;37.848;2024-02-21T07:14:27;10.63;;;7.50;;
47784;SDS011;35233;55.686;37.848;2024-02-21T07:16:53;8.95;;;6.97;;
47784;SDS011;35233;55.686;37.848;2024-02-21T07:19:19;8.60;;;6.75;;
47784;SDS011;35233;55.686;37.848;2024-02-21T07:21:45;10.13;;;7.22;;
47784;SDS011;35233;55.686;37.848;2024-02-21T07:24:11;8.57;;;6.88;;
47784;SDS011;35233;55.686;37.848;2024-02-21T07:26:37;10.20;;;7.07;;
47784;SDS011;35233;55.686;37.848;2024-02-21T07:29:06;9.45;;;6.97;;
47784;SDS011;35233;55.686;37.848;2024-02-21T07:31:31;8.15;;;6.70;;
47784;SDS011;35233;55.686;37.848;2024-02-21T07:34:03;9.90;;;6.93;;
47784;SDS011;35233;55.686;37.848;2024-02-21T07:36:29;7.65;;;6.55;;
47784;SDS011;35233;55.686;37.848;2024-02-21T07:38:55;8.82;;;6.70;;
47784;SDS011;35233;55.686;37.848;2024-02-21T07:41:21;8.75;;;6.90;;
47784;SDS011;35233;55.686;37.848;2024-02-21T07:43:46;9.05;;;6.90;;
47784;SDS011;35233;55.686;37.848;2024-02-21T07:46:14;8.20;;;6.25;;
47784;SDS011;35233;55.686;37.848;2024-02-21T07:48:39;7.20;;;6.00;;
47784;SDS011;35233;55.686;37.848;2024-02-21T07:51:05;8.57;;;6.10;;
47784;SDS011;35233;55.686;37.848;2024-02-21T07:53:31;15.13;;;6.18;;
47784;SDS011;35233;55.686;37.848;2024-02-21T07:55:56;8.50;;;6.28;;
47784;SDS011;35233;55.686;37.848;2024-02-21T07:58:22;7.45;;;6.00;;
47784;SDS011;35233;55.686;37.848;2024-02-21T08:00:48;7.15;;;5.38;;
47784;SDS011;35233;55.686;37.848;2024-02-21T08:03:13;7.30;;;5.68;;
47784;SDS011;35233;55.686;37.848;2024-02-21T08:05:40;7.38;;;5.78;;
47784;SDS011;35233;55.686;37.848;2024-02-21T08:08:06;8.15;;;6.07;;
47784;SDS011;35233;55.686;37.848;2024-02-21T08:10:33;6.88;;;5.60;;
47784;SDS011;35233;55.686;37.848;2024-02-21T08:12:59;7.45;;;5.68;;
47784;SDS011;35233;55.686;37.848;2024-02-21T08:15:25;6.82;;;5.55;;
47784;SDS011;35233;55.686;37.848;2024-02-21T08:17:54;7.38;;;5.68;;
47784;SDS011;35233;55.686;37.848;2024-02-21T08:20:24;6.15;;;5.15;;
47784;SDS011;35233;55.686;37.848;2024-02-21T08:22:51;7.13;;;5.32;;
47784;SDS011;35233;55.686;37.848;2024-02-21T08:25:16;6.65;;;5.25;;
47784;SDS011;35233;55.686;37.848;2024-02-21T08:27:42;8.10;;;5.28;;
47784;SDS011;35233;55.686;37.848;2024-02-21T08:30:07;7.85;;;5.45;;
47784;SDS011;35233;55.686;37.848;2024-02-21T08:32:34;6.63;;;5.07;;
47784;SDS011;35233;55.686;37.848;2024-02-21T08:35:01;7.30;;;5.28;;
47784;SDS011;35233;55.686;37.848;2024-02-21T08:37:27;7.30;;;5.75;;
47784;SDS011;35233;55.686;37.848;2024-02-21T08:39:52;7.97;;;5.40;;
47784;SDS011;35233;55.686;37.848;2024-02-21T08:42:18;6.72;;;5.65;;
47784;SDS011;35233;55.686;37.848;2024-02-21T08:44:44;6.78;;;5.70;;
47784;SDS011;35233;55.686;37.848;2024-02-21T08:47:10;6.60;;;5.68;;
47784;SDS011;35233;55.686;37.848;2024-02-21T08:49:35;8.60;;;6.35;;
47784;SDS011;35233;55.686;37.848;2024-02-21T08:52:02;8.07;;;5.88;;
47784;SDS011;35233;55.686;37.848;2024-02-21T08:54:28;7.80;;;6.03;;
47784;SDS011;35233;55.686;37.848;2024-02-21T08:56:54;7.30;;;5.82;;
47784;SDS011;35233;55.686;37.848;2024-02-21T08:59:20;6.93;;;5.57;;
47784;SDS011;35233;55.686;37.848;2024-02-21T09:01:46;7.20;;;5.60;;
47784;SDS011;35233;55.686;37.848;2024-02-21T09:04:11;7.20;;;5.93;;
47784;SDS011;35233;55.686;37.848;2024-02-21T09:06:37;7.95;;;5.50;;
47784;SDS011;35233;55.686;37.848;2024-02-21T09:09:07;7.07;;;5.63;;
47784;SDS011;35233;55.686;37.848;2024-02-21T09:11:35;5.78;;;4.85;;
47784;SDS011;35233;55.686;37.848;2024-02-21T09:14:01;6.70;;;5.00;;
47784;SDS011;35233;55.686;37.848;2024-02-21T09:16:30;7.35;;;4.97;;
47784;SDS011;35233;55.686;37.848;2024-02-21T09:18:57;8.00;;;5.35;;
47784;SDS011;35233;55.686;37.848;2024-02-21T09:21:23;6.88;;;5.30;;
47784;SDS011;35233;55.686;37.848;2024-02-21T09:23:48;7.03;;;5.70;;
47784;SDS011;35233;55.686;37.848;2024-02-21T09:26:14;7.57;;;4.93;;
47784;SDS011;35233;55.686;37.848;2024-02-21T09:28:42;7.10;;;5.30;;
47784;SDS011;35233;55.686;37.848;2024-02-21T09:31:08;6.40;;;5.00;;
47784;SDS011;35233;55.686;37.848;2024-02-21T09:33:34;6.35;;;4.93;;
47784;SDS011;35233;55.686;37.848;2024-02-21T09:35:59;5.90;;;4.80;;
47784;SDS011;35233;55.686;37.848;2024-02-21T09:38:25;6.45;;;4.88;;
47784;SDS011;35233;55.686;37.848;2024-02-21T09:41:03;5.65;;;4.80;;
47784;SDS011;35233;55.686;37.848;2024-02-21T09:43:36;5.90;;;4.60;;
47784;SDS011;35233;55.686;37.848;2024-02-21T09:46:05;6.28;;;4.70;;
47784;SDS011;35233;55.686;37.848;2024-02-21T09:51:12;5.72;;;4.50;;
47784;SDS011;35233;55.686;37.848;2024-02-21T09:53:40;6.90;;;5.03;;
47784;SDS011;35233;55.686;37.848;2024-02-21T09:56:08;6.63;;;5.05;;
47784;SDS011;35233;55.686;37.848;2024-02-21T09:58:34;6.68;;;4.90;;
47784;SDS011;35233;55.686;37.848;2024-02-21T10:01:00;6.93;;;5.22;;
47784;SDS011;35233;55.686;37.848;2024-02-21T10:03:26;6.55;;;4.88;;
47784;SDS011;35233;55.686;37.848;2024-02-21T10:05:51;6.28;;;4.68;;
47784;SDS011;35233;55.686;37.848;2024-02-21T10:08:17;5.55;;;4.57;;
47784;SDS011;35233;55.686;37.848;2024-02-21T10:10:45;6.68;;;4.55;;
47784;SDS011;35233;55.686;37.848;2024-02-21T10:13:32;6.18;;;4.68;;
47784;SDS011;35233;55.686;37.848;2024-02-21T10:16:00;6.97;;;5.20;;
47784;SDS011;35233;55.686;37.848;2024-02-21T10:18:26;6.30;;;4.80;;
47784;SDS011;35233;55.686;37.848;2024-02-21T10:21:06;5.82;;;4.63;;
47784;SDS011;35233;55.686;37.848;2024-02-21T10:23:42;6.63;;;4.50;;
47784;SDS011;35233;55.686;37.848;2024-02-21T10:26:08;7.43;;;5.00;;
47784;SDS011;35233;55.686;37.848;2024-02-21T10:28:34;6.90;;;5.00;;
47784;SDS011;35233;55.686;37.848;2024-02-21T10:31:00;6.80;;;4.75;;
47784;SDS011;35233;55.686;37.848;2024-02-21T10:33:25;5.97;;;4.63;;
47784;SDS011;35233;55.686;37.848;2024-02-21T10:35:53;6.93;;;4.80;;
47784;SDS011;35233;55.686;37.848;2024-02-21T10:38:19;6.60;;;4.95;;
47784;SDS011;35233;55.686;37.848;2024-02-21T10:40:44;7.57;;;4.97;;
47784;SDS011;35233;55.686;37.848;2024-02-21T10:43:12;6.10;;;4.75;;
47784;SDS011;35233;55.686;37.848;2024-02-21T10:45:39;5.45;;;4.22;;
47784;SDS011;35233;55.686;37.848;2024-02-21T10:53:42;5.35;;;4.43;;
47784;SDS011;35233;55.686;37.848;2024-02-21T10:58:44;6.68;;;4.00;;
47784;SDS011;35233;55.686;37.848;2024-02-21T11:01:11;6.68;;;4.45;;
47784;SDS011;35233;55.686;37.848;2024-02-21T11:03:40;6.15;;;4.10;;
47784;SDS011;35233;55.686;37.848;2024-02-21T11:06:09;7.72;;;4.50;;
47784;SDS011;35233;55.686;37.848;2024-02-21T11:08:37;7.40;;;4.40;;
47784;SDS011;35233;55.686;37.848;2024-02-21T11:11:02;5.75;;;4.00;;
47784;SDS011;35233;55.686;37.848;2024-02-21T11:13:40;5.43;;;4.05;;
47784;SDS011;35233;55.686;37.848;2024-02-21T11:16:09;5.80;;;4.15;;
47784;SDS011;35233;55.686;37.848;2024-02-21T11:18:36;5.30;;;4.10;;
47784;SDS011;35233;55.686;37.848;2024-02-21T11:21:03;5.82;;;4.30;;
47784;SDS011;35233;55.686;37.848;2024-02-21T11:23:30;5.78;;;4.35;;
47784;SDS011;35233;55.686;37.848;2024-02-21T11:26:09;5.20;;;4.05;;
47784;SDS011;35233;55.686;37.848;2024-02-21T11:28:36;6.07;;;4.22;;
47784;SDS011;35233;55.686;37.848;2024-02-21T11:31:09;6.85;;;4.78;;
47784;SDS011;35233;55.686;37.848;2024-02-21T11:33:39;6.10;;;4.35;;
47784;SDS011;35233;55.686;37.848;2024-02-21T11:36:07;5.82;;;4.10;;
47784;SDS011;35233;55.686;37.848;2024-02-21T11:38:36;6.05;;;4.13;;
47784;SDS011;35233;55.686;37.848;2024-02-21T11:41:01;5.30;;;4.03;;
47784;SDS011;35233;55.686;37.848;2024-02-21T11:43:27;5.53;;;4.28;;
47784;SDS011;35233;55.686;37.848;2024-02-21T11:46:02;6.88;;;4.45;;
47784;SDS011;35233;55.686;37.848;2024-02-21T11:48:29;5.40;;;4.00;;
47784;SDS011;35233;55.686;37.848;2024-02-21T11:50:55;6.70;;;4.43;;
47784;SDS011;35233;55.686;37.848;2024-02-21T11:53:21;6.40;;;4.20;;
47784;SDS011;35233;55.686;37.848;2024-02-21T11:55:47;7.93;;;4.70;;
47784;SDS011;35233;55.686;37.848;2024-02-21T11:58:13;5.70;;;4.45;;
47784;SDS011;35233;55.686;37.848;2024-02-21T12:00:38;6.45;;;4.72;;
47784;SDS011;35233;55.686;37.848;2024-02-21T12:03:05;5.50;;;4.28;;
47784;SDS011;35233;55.686;37.848;2024-02-21T12:05:33;5.32;;;4.18;;
47784;SDS011;35233;55.686;37.848;2024-02-21T12:07:59;5.82;;;4.30;;
47784;SDS011;35233;55.686;37.848;2024-02-21T12:10:25;6.00;;;4.60;;
47784;SDS011;35233;55.686;37.848;2024-02-21T12:13:15;6.13;;;4.60;;
47784;SDS011;35233;55.686;37.848;2024-02-21T12:15:40;5.20;;;4.18;;
47784;SDS011;35233;55.686;37.848;2024-02-21T12:18:06;6.47;;;4.82;;
47784;SDS011;35233;55.686;37.848;2024-02-21T12:20:32;5.50;;;4.20;;
47784;SDS011;35233;55.686;37.848;2024-02-21T12:22:59;5.50;;;4.13;;
47784;SDS011;35233;55.686;37.848;2024-02-21T12:25:26;5.30;;;4.28;;
47784;SDS011;35233;55.686;37.848;2024-02-21T12:27:52;5.57;;;4.15;;
47784;SDS011;35233;55.686;37.848;2024-02-21T12:30:19;5.90;;;4.30;;
47784;SDS011;35233;55.686;37.848;2024-02-21T12:32:45;6.15;;;4.10;;
47784;SDS011;35233;55.686;37.848;2024-02-21T12:35:11;5.18;;;3.90;;
47784;SDS011;35233;55.686;37.848;2024-02-21T12:37:37;5.10;;;4.18;;
47784;SDS011;35233;55.686;37.848;2024-02-21T12:40:08;6.22;;;4.50;;
47784;SDS011;35233;55.686;37.848;2024-02-21T12:42:35;6.43;;;4.22;;
47784;SDS011;35233;55.686;37.848;2024-02-21T12:45:02;5.72;;;4.43;;
47784;SDS011;35233;55.686;37.848;2024-02-21T12:47:28;5.57;;;3.97;;
47784;SDS011;35233;55.686;37.848;2024-02-21T12:49:54;6.35;;;4.35;;
47784;SDS011;35233;55.686;37.848;2024-02-21T12:52:19;6.38;;;4.82;;
47784;SDS011;35233;55.686;37.848;2024-02-21T12:54:45;6.50;;;4.35;;
47784;SDS011;35233;55.686;37.848;2024-02-21T12:57:11;5.95;;;4.30;;
47784;SDS011;35233;55.686;37.848;2024-02-21T12:59:36;7.07;;;4.50;;
47784;SDS011;35233;55.686;37.848;2024-02-21T13:02:02;5.68;;;4.32;;
47784;SDS011;35233;55.686;37.848;2024-02-21T13:04:28;6.50;;;4.50;;
47784;SDS011;35233;55.686;37.848;2024-02-21T13:06:54;5.88;;;4.80;;
47784;SDS011;35233;55.686;37.848;2024-02-21T13:09:20;5.57;;;4.32;;
47784;SDS011;35233;55.686;37.848;2024-02-21T13:11:46;7.00;;;4.22;;
47784;SDS011;35233;55.686;37.848;2024-02-21T13:14:12;6.20;;;4.72;;
47784;SDS011;35233;55.686;37.848;2024-02-21T13:16:38;6.25;;;4.47;;
47784;SDS011;35233;55.686;37.848;2024-02-21T13:19:06;6.15;;;4.75;;
47784;SDS011;35233;55.686;37.848;2024-02-21T13:21:35;6.45;;;4.68;;
47784;SDS011;35233;55.686;37.848;2024-02-21T13:24:01;5.13;;;4.20;;
47784;SDS011;35233;55.686;37.848;2024-02-21T13:26:27;6.30;;;4.60;;
47784;SDS011;35233;55.686;37.848;2024-02-21T13:28:53;6.22;;;4.53;;
47784;SDS011;35233;55.686;37.848;2024-02-21T13:31:19;6.00;;;4.25;;
47784;SDS011;35233;55.686;37.848;2024-02-21T13:33:48;6.50;;;4.72;;
47784;SDS011;35233;55.686;37.848;2024-02-21T13:36:13;5.85;;;4.40;;
47784;SDS011;35233;55.686;37.848;2024-02-21T13:38:39;6.55;;;4.53;;
47784;SDS011;35233;55.686;37.848;2024-02-21T13:41:05;7.20;;;4.68;;
47784;SDS011;35233;55.686;37.848;2024-02-21T13:43:34;6.28;;;4.50;;
47784;SDS011;35233;55.686;37.848;2024-02-21T13:46:00;5.50;;;4.13;;
47784;SDS011;35233;55.686;37.848;2024-02-21T13:48:34;6.85;;;4.38;;
47784;SDS011;35233;55.686;37.848;2024-02-21T13:51:00;7.95;;;4.80;;
47784;SDS011;35233;55.686;37.848;2024-02-21T13:53:27;6.90;;;4.75;;
47784;SDS011;35233;55.686;37.848;2024-02-21T13:55:53;5.50;;;4.05;;
47784;SDS011;35233;55.686;37.848;2024-02-21T13:58:22;6.32;;;4.68;;
47784;SDS011;35233;55.686;37.848;2024-02-21T14:00:47;6.32;;;4.20;;
47784;SDS011;35233;55.686;37.848;2024-02-21T14:03:13;5.72;;;4.20;;
47784;SDS011;35233;55.686;37.848;2024-02-21T14:05:38;5.60;;;4.40;;
47784;SDS011;35233;55.686;37.848;2024-02-21T14:08:05;5.60;;;4.43;;
47784;SDS011;35233;55.686;37.848;2024-02-21T14:10:31;9.13;;;4.47;;
47784;SDS011;35233;55.686;37.848;2024-02-21T14:12:58;6.97;;;4.60;;
47784;SDS011;35233;55.686;37.848;2024-02-21T14:15:24;6.10;;;4.93;;
47784;SDS011;35233;55.686;37.848;2024-02-21T14:17:50;5.85;;;4.40;;
47784;SDS011;35233;55.686;37.848;2024-02-21T14:20:15;6.65;;;4.30;;
47784;SDS011;35233;55.686;37.848;2024-02-21T14:22:41;5.32;;;4.22;;
47784;SDS011;35233;55.686;37.848;2024-02-21T14:25:07;5.75;;;4.43;;
47784;SDS011;35233;55.686;37.848;2024-02-21T14:27:33;6.38;;;4.30;;
47784;SDS011;35233;55.686;37.848;2024-02-21T14:30:00;5.60;;;4.20;;
47784;SDS011;35233;55.686;37.848;2024-02-21T14:32:27;6.35;;;4.63;;
47784;SDS011;35233;55.686;37.848;2024-02-21T14:34:53;7.35;;;4.30;;
47784;SDS011;35233;55.686;37.848;2024-02-21T14:37:18;6.75;;;4.43;;
47784;SDS011;35233;55.686;37.848;2024-02-21T14:39:44;6.05;;;4.13;;